MDT,Max TemperatureF,Mean TemperatureF,Min TemperatureF,Max Dew PointF,MeanDew PointF,Min DewpointF,Max Humidity, Mean Humidity, Min Humidity, Max Sea Level PressureIn, Mean Sea Level PressureIn, Min Sea Level PressureIn, Max VisibilityMiles, Mean VisibilityMiles, Min VisibilityMiles, Max Wind SpeedMPH, Mean Wind SpeedMPH, Max Gust SpeedMPH,PrecipitationIn, CloudCover, Events, WindDirDegrees
2013-4-1,54,37,20,26,20,13,96,58,19,30.19,30.15,30.11,10,10,10,16,7,21,0.00,0,,170
2013-4-2,61,41,20,25,17,13,81,48,15,30.14,30.08,29.96,10,10,10,24,10,31,0.00,0,,165
2013-4-3,66,47,27,32,25,14,85,54,22,30.11,29.98,29.89,10,10,10,24,13,32,0.00,1,,350
2013-4-4,67,47,27,35,30,26,92,58,24,30.10,29.96,29.76,10,10,10,26,11,32,0.00,3,,118
2013-4-5,71,54,37,45,32,25,89,55,20,29.78,29.68,29.53,10,10,7,39,12,48,0.11,5,Rain,281
2013-4-6,59,48,37,38,32,29,82,59,35,29.86,29.79,29.73,10,10,10,21,8,28,0.00,2,,280
2013-4-7,62,47,31,38,34,21,100,63,26,29.79,29.64,29.53,10,10,10,29,6,36,0.00,3,,322
2013-4-8,38,26,13,38,23,12,100,92,84,30.28,29.90,29.55,10,4,0,28,18,33,0.27,7,Fog-Snow,351
2013-4-9,16,13,9,12,9,7,92,88,83,30.50,30.31,30.10,10,2,0,23,13,28,0.31,8,Fog-Snow,355
2013-4-10,24,18,11,17,12,8,92,83,73,30.42,30.22,30.00,10,6,2,12,5,13,0.06,6,Snow,293
2013-4-11,40,28,15,34,26,11,100,84,68,29.96,29.86,29.76,10,10,8,17,7,21,T,7,,341
2013-4-12,40,33,26,32,28,24,100,77,54,30.02,29.94,29.85,10,9,2,32,14,40,T,4,Snow,296
2013-4-13,58,43,28,37,31,24,100,70,40,29.88,29.45,29.26,10,8,2,47,16,55,0.09,5,Rain-Snow,243
2013-4-14,34,26,17,32,24,15,92,81,69,29.94,29.60,29.43,10,5,1,40,24,51,0.01,8,Snow,315
2013-4-15,28,21,14,20,15,12,92,78,63,30.20,30.00,29.81,10,10,5,18,9,25,T,7,Snow,323
2013-4-16,26,22,18,22,19,17,96,89,81,30.33,30.15,30.04,10,4,0,16,7,18,0.16,7,Fog-Snow,26
2013-4-17,25,19,13,21,18,13,100,87,74,30.35,30.21,30.13,10,4,1,20,11,22,0.05,7,Snow,344
2013-4-18,40,25,9,25,17,8,96,68,40,30.33,30.20,30.07,10,10,10,24,11,29,0.00,4,,305
2013-4-19,49,39,29,33,28,25,92,67,42,30.06,29.95,29.83,10,10,10,20,10,25,0.00,7,,276
2013-4-20,56,44,31,36,33,28,100,68,35,29.91,29.86,29.81,10,10,7,25,11,32,T,5,Rain,285
2013-4-21,45,36,26,38,31,26,100,88,76,30.15,30.05,29.91,10,6,0,22,11,25,0.31,8,Fog-Snow,14
2013-4-22,26,18,9,26,21,9,100,82,63,30.53,30.25,30.08,10,4,0,22,12,25,0.14,7,Fog-Snow,3
2013-4-23,35,21,7,20,14,6,92,70,47,30.48,30.32,30.19,10,10,10,15,8,17,0.00,0,,254
2013-4-24,43,35,26,30,26,19,92,74,55,30.26,30.15,30.06,10,6,0,30,14,35,0.03,6,Fog-Snow,304
2013-4-25,64,48,32,30,23,17,82,50,17,30.02,29.90,29.79,10,10,10,25,11,31,0.00,0,,246
2013-4-26,68,48,27,35,27,22,85,52,19,30.16,30.07,29.99,10,10,10,13,5,17,0.00,1,,218
2013-4-27,75,55,35,34,29,23,76,45,14,30.07,29.94,29.78,10,10,10,20,8,24,0.00,0,,263
2013-4-28,61,50,39,41,35,30,92,66,39,29.98,29.87,29.73,10,10,10,22,10,28,0.01,3,Rain,347
2013-4-29,70,51,32,40,35,26,100,60,20,29.82,29.60,29.37,10,10,6,36,17,41,0.15,3,Rain-Snow,258
2013-4-30,45,35,25,34,28,21,96,70,43,30.24,29.88,29.70,10,8,1,21,12,28,0.01,7,Snow,331